Tampa, FL (33606)

5:29 PM EDT on August 27, 2015 (GMT -0400)
The University of Tampa | | Change Station
CLOSE
Current Station
Personal Weather Station
Location: Tampa, FL
Elevation: 30 ft
Nearby Weather Stations

Elev 30 ft 27.95 °N, 82.46 °W | Updated 0 second ago

Clear
Clear
86.8 °F
Feels Like 97 °F
N
5.0
Wind Variable Wind from North
Gusts 10.0 mph

Today
High -- | Low -- °F
--% Chance of Precip.
Yesterday
High -- | Low -- °F
Precip. -- in
7:06 AM 7:56 PM
Waxing Gibbous, 95% visible
Pressure 29.92 in
Visibility 10.0 miles
Clouds Clear
Heat Index 97 °F
Dew Point 76 °F
Humidity 70%
Rainfall 0.09 in
Snow Depth Not available.
UV 5 out of 12
Pollen 3.40 out of 12
Air Quality Not available.
Flu Activity Not available.
METAR KTPF 272115Z AUTO 16004KT 10SM CLR 30/25 A2992 RMK AO2
Pressure 29.92 in
Visibility 10.0 miles
Clouds Clear
Heat Index 97 °F
Dew Point 76 °F
Humidity 70%
Rainfall 0.09 in
Snow Depth Not available.
UV 5 out of 12
Pollen 3.40 out of 12
Air Quality Not available.
Flu Activity Not available.
METAR KTPF 272115Z AUTO 16004KT 10SM CLR 30/25 A2992 RMK AO2
Tropical Storm Erika remains unorganized as it travels through the northeast Caribbean Sea. The storm has already dumped 5-10 inches of rain on the Lesser Antilles, with more rain anticipated for Puerto Rico and Hispaniola. This will be much-needed rain for those islands. Erika is not forecast to reach hurricane strength until Monday when it curves northward along the east coast of Florida. Follow the live blog

10-Day Weather Forecast

×

Almanac

Astronomy

Aug. 27, 2015 Rise Set
Actual Time
Civil Twilight
Nautical Twilight
Astronomical Twilight
Moon
Length of Visible Light
Length of Day
Tomorrow will be .
, % of the Moon is Illuminated

Today's Extremes

State Highs State Lows

Community

WunderPhotos

Upload Photos

1,850,235 photos uploaded!

WunderBlogs® & News

Nearby

Air Quality

  Air Quality AQ Index Pollutant
Not available.

Snow Depth

Station Depth Elevation

Earthquake Activity

City Distance Mag. Time & Date
Minimum magnitude displayed is 2.5.

Coastal Water Temperatures

Place Temperature

Stations

Nearby Weather Stations

Station Location Temp. Windchill Dew Point Humidity Wind Precip. Elev Updated Type